Hovedside
METAR-TAF:

METAR-TAF

Lufthavner :

Arvidsjaur lufthavn

Arvidsjaur, Sverige

breddegrad: 65-35-25N, lengdegrad: 019-16-55E, høyde over havet: 379 m

Gjeldene værobservasjon

Denne rapporten ble laget for 21 minutter siden, klokken 16:50 UTC
Vind 13 kt fra Vest-nordvest
Temperatur -1°C
Luftfuktighet 54%
Trykk 1010 hPa
Sikt 10 km eller mer

METAR: ESNX 091650Z AUTO 30013KT 9999 FEW046/// M01/M09 Q1010

Tid: 19:11 (17:11 UTC)

Varsel

Denne rapporten ble laget for 4 timer og 41 minutter siden, klokken 12:30 UTC
Varsel gyldig fra 09. klokken 13 UTC til 09. klokken 16 UTC
Vind 16 kt fra Vest-nordvest
Sikt 10 km eller mer
ingen skyer under 1500 m og ingen bygeskyer
Sannsynlighet 40%
fra 09. klokken 13 UTC til 09. klokken 16 UTC
Spredte skyer i en høyde av 3500 ft, Tårnskyer (cumulus).

TAF: ESNX 091230Z 0913/0916 30016KT CAVOK PROB40 0913/0916 SCT035TCU

Værobservasjoner og værvarsel for over 4000 flyplasser (METAR- og TAF-rapporter).

Tilgjengelige stasjoner er representert av de røde og gule prikkene på kartet.

Hold musepekeren over prikken for å se navnet på stasjonen.

Klikk så for å se værobservasjoner og -varsler.

For å forandre kartet kan du klikke på den grønne knappen med svart kryss for å zoome inn, på den grønne knappen med strek for å zoome ut, eller på de grønne pilene for å se tilstøtende kart.


METAR-TAF: